sensor_id;sensor_type;location;lat;lon;timestamp;temperature;humidity
40153;DHT22;26371;56.992;23.912;2023-01-23T00:00:15;-1.20;99.90
40153;DHT22;26371;56.992;23.912;2023-01-23T00:02:44;-1.20;99.90
40153;DHT22;26371;56.992;23.912;2023-01-23T00:05:13;-1.20;99.90
40153;DHT22;26371;56.992;23.912;2023-01-23T00:07:41;-1.10;99.90
40153;DHT22;26371;56.992;23.912;2023-01-23T00:10:10;-1.10;99.90
40153;DHT22;26371;56.992;23.912;2023-01-23T00:12:42;-1.20;99.90
40153;DHT22;26371;56.992;23.912;2023-01-23T00:15:11;-1.20;99.90
40153;DHT22;26371;56.992;23.912;2023-01-23T00:17:40;-1.20;99.90
40153;DHT22;26371;56.992;23.912;2023-01-23T00:20:10;-1.20;99.90
40153;DHT22;26371;56.992;23.912;2023-01-23T00:22:39;-1.20;99.90
40153;DHT22;26371;56.992;23.912;2023-01-23T00:25:08;-1.20;99.90
40153;DHT22;26371;56.992;23.912;2023-01-23T00:27:36;-1.20;99.90
40153;DHT22;26371;56.992;23.912;2023-01-23T00:30:08;-1.20;99.90
40153;DHT22;26371;56.992;23.912;2023-01-23T00:32:37;-1.20;99.90
40153;DHT22;26371;56.992;23.912;2023-01-23T00:35:06;-1.20;99.90
40153;DHT22;26371;56.992;23.912;2023-01-23T00:37:35;-1.20;99.90
40153;DHT22;26371;56.992;23.912;2023-01-23T00:40:04;-1.20;99.90
40153;DHT22;26371;56.992;23.912;2023-01-23T00:42:33;-1.20;99.90
40153;DHT22;26371;56.992;23.912;2023-01-23T00:45:02;-1.20;99.90
40153;DHT22;26371;56.992;23.912;2023-01-23T00:47:32;-1.20;99.90
40153;DHT22;26371;56.992;23.912;2023-01-23T00:50:01;-1.30;99.90
40153;DHT22;26371;56.992;23.912;2023-01-23T00:52:30;-1.30;99.90
40153;DHT22;26371;56.992;23.912;2023-01-23T00:54:58;-1.30;99.90
40153;DHT22;26371;56.992;23.912;2023-01-23T00:57:27;-1.40;99.90
40153;DHT22;26371;56.992;23.912;2023-01-23T00:59:56;-1.40;99.90
40153;DHT22;26371;56.992;23.912;2023-01-23T01:02:25;-1.40;99.90
40153;DHT22;26371;56.992;23.912;2023-01-23T01:04:55;-1.40;99.90
40153;DHT22;26371;56.992;23.912;2023-01-23T01:07:24;-1.40;99.90
40153;DHT22;26371;56.992;23.912;2023-01-23T01:09:52;-1.40;99.90
40153;DHT22;26371;56.992;23.912;2023-01-23T01:12:21;-1.40;99.90
40153;DHT22;26371;56.992;23.912;2023-01-23T01:14:49;-1.40;99.90
40153;DHT22;26371;56.992;23.912;2023-01-23T01:17:18;-1.40;99.90
40153;DHT22;26371;56.992;23.912;2023-01-23T01:19:47;-1.50;99.90
40153;DHT22;26371;56.992;23.912;2023-01-23T01:22:17;-1.50;99.90
40153;DHT22;26371;56.992;23.912;2023-01-23T01:24:45;-1.50;99.90
40153;DHT22;26371;56.992;23.912;2023-01-23T01:27:14;-1.50;99.90
40153;DHT22;26371;56.992;23.912;2023-01-23T01:29:42;-1.50;99.90
40153;DHT22;26371;56.992;23.912;2023-01-23T01:32:11;-1.50;99.90
40153;DHT22;26371;56.992;23.912;2023-01-23T01:34:45;-1.40;99.90
40153;DHT22;26371;56.992;23.912;2023-01-23T01:37:32;-1.40;99.90
40153;DHT22;26371;56.992;23.912;2023-01-23T01:40:11;-1.30;99.90
40153;DHT22;26371;56.992;23.912;2023-01-23T01:42:41;-1.30;99.90
40153;DHT22;26371;56.992;23.912;2023-01-23T01:48:13;-1.20;99.90
40153;DHT22;26371;56.992;23.912;2023-01-23T01:50:42;-1.20;99.90
40153;DHT22;26371;56.992;23.912;2023-01-23T01:53:12;-1.30;99.90
40153;DHT22;26371;56.992;23.912;2023-01-23T01:55:41;-1.30;99.90
40153;DHT22;26371;56.992;23.912;2023-01-23T01:58:10;-1.40;99.90
40153;DHT22;26371;56.992;23.912;2023-01-23T02:00:40;-1.40;99.90
40153;DHT22;26371;56.992;23.912;2023-01-23T02:03:09;-1.40;99.90
40153;DHT22;26371;56.992;23.912;2023-01-23T02:05:41;-1.40;99.90
40153;DHT22;26371;56.992;23.912;2023-01-23T02:08:17;-1.40;99.90
40153;DHT22;26371;56.992;23.912;2023-01-23T02:10:48;-1.40;99.90
40153;DHT22;26371;56.992;23.912;2023-01-23T02:13:20;-1.40;99.90
40153;DHT22;26371;56.992;23.912;2023-01-23T02:15:50;-1.40;99.90
40153;DHT22;26371;56.992;23.912;2023-01-23T02:18:19;-1.50;99.90
40153;DHT22;26371;56.992;23.912;2023-01-23T02:20:50;-1.50;99.90
40153;DHT22;26371;56.992;23.912;2023-01-23T02:23:27;-1.50;99.90
40153;DHT22;26371;56.992;23.912;2023-01-23T02:26:01;-1.50;99.90
40153;DHT22;26371;56.992;23.912;2023-01-23T02:28:39;-1.40;99.90
40153;DHT22;26371;56.992;23.912;2023-01-23T02:31:10;-1.40;99.90
40153;DHT22;26371;56.992;23.912;2023-01-23T02:33:53;-1.40;99.90
40153;DHT22;26371;56.992;23.912;2023-01-23T02:36:25;-1.30;99.90
40153;DHT22;26371;56.992;23.912;2023-01-23T02:39:03;-1.30;99.90
40153;DHT22;26371;56.992;23.912;2023-01-23T02:41:37;-1.40;99.90
40153;DHT22;26371;56.992;23.912;2023-01-23T02:44:10;-1.40;99.90
40153;DHT22;26371;56.992;23.912;2023-01-23T02:46:42;-1.30;99.90
40153;DHT22;26371;56.992;23.912;2023-01-23T02:49:11;-1.40;99.90
40153;DHT22;26371;56.992;23.912;2023-01-23T02:51:40;-1.40;99.90
40153;DHT22;26371;56.992;23.912;2023-01-23T02:54:08;-1.40;99.90
40153;DHT22;26371;56.992;23.912;2023-01-23T02:56:39;-1.40;99.90
40153;DHT22;26371;56.992;23.912;2023-01-23T02:59:08;-1.50;99.90
40153;DHT22;26371;56.992;23.912;2023-01-23T03:01:54;-1.50;99.90
40153;DHT22;26371;56.992;23.912;2023-01-23T03:04:23;-1.50;99.90
40153;DHT22;26371;56.992;23.912;2023-01-23T03:06:52;-1.50;99.90
40153;DHT22;26371;56.992;23.912;2023-01-23T03:09:21;-1.50;99.90
40153;DHT22;26371;56.992;23.912;2023-01-23T03:11:52;-1.50;99.90
40153;DHT22;26371;56.992;23.912;2023-01-23T03:14:21;-1.50;99.90
40153;DHT22;26371;56.992;23.912;2023-01-23T03:16:52;-1.50;99.90
40153;DHT22;26371;56.992;23.912;2023-01-23T03:19:28;-1.50;99.90
40153;DHT22;26371;56.992;23.912;2023-01-23T03:21:58;-1.50;99.90
40153;DHT22;26371;56.992;23.912;2023-01-23T03:24:27;-1.50;99.90
40153;DHT22;26371;56.992;23.912;2023-01-23T03:26:57;-1.40;99.90
40153;DHT22;26371;56.992;23.912;2023-01-23T03:29:27;-1.50;99.90
40153;DHT22;26371;56.992;23.912;2023-01-23T03:32:14;-1.50;99.90
40153;DHT22;26371;56.992;23.912;2023-01-23T03:34:44;-1.50;99.90
40153;DHT22;26371;56.992;23.912;2023-01-23T03:37:13;-1.50;99.90
40153;DHT22;26371;56.992;23.912;2023-01-23T03:39:45;-1.50;99.90
40153;DHT22;26371;56.992;23.912;2023-01-23T03:42:34;-1.50;99.90
40153;DHT22;26371;56.992;23.912;2023-01-23T03:45:06;-1.50;99.90
40153;DHT22;26371;56.992;23.912;2023-01-23T03:47:35;-1.50;99.90
40153;DHT22;26371;56.992;23.912;2023-01-23T03:50:06;-1.50;99.90
40153;DHT22;26371;56.992;23.912;2023-01-23T03:52:38;-1.50;99.90
40153;DHT22;26371;56.992;23.912;2023-01-23T03:55:08;-1.50;99.90
40153;DHT22;26371;56.992;23.912;2023-01-23T03:57:39;-1.50;99.90
40153;DHT22;26371;56.992;23.912;2023-01-23T04:00:23;-1.40;99.90
40153;DHT22;26371;56.992;23.912;2023-01-23T04:02:58;-1.40;99.90
40153;DHT22;26371;56.992;23.912;2023-01-23T04:05:27;-1.50;99.90
40153;DHT22;26371;56.992;23.912;2023-01-23T04:07:56;-1.50;99.90
40153;DHT22;26371;56.992;23.912;2023-01-23T04:10:26;-1.50;99.90
40153;DHT22;26371;56.992;23.912;2023-01-23T04:13:02;-1.50;99.90
40153;DHT22;26371;56.992;23.912;2023-01-23T04:15:31;-1.50;99.90
40153;DHT22;26371;56.992;23.912;2023-01-23T04:18:03;-1.50;99.90
40153;DHT22;26371;56.992;23.912;2023-01-23T04:20:32;-1.60;99.90
40153;DHT22;26371;56.992;23.912;2023-01-23T04:23:01;-1.60;99.90
40153;DHT22;26371;56.992;23.912;2023-01-23T04:25:30;-1.60;99.90
40153;DHT22;26371;56.992;23.912;2023-01-23T04:27:59;-1.60;99.90
40153;DHT22;26371;56.992;23.912;2023-01-23T04:30:29;-1.60;99.90
40153;DHT22;26371;56.992;23.912;2023-01-23T04:33:03;-1.60;99.90
40153;DHT22;26371;56.992;23.912;2023-01-23T04:35:32;-1.60;99.90
40153;DHT22;26371;56.992;23.912;2023-01-23T04:38:02;-1.70;99.90
40153;DHT22;26371;56.992;23.912;2023-01-23T04:40:30;-1.70;99.90
40153;DHT22;26371;56.992;23.912;2023-01-23T04:42:59;-1.70;99.90
40153;DHT22;26371;56.992;23.912;2023-01-23T04:45:33;-1.70;99.90
40153;DHT22;26371;56.992;23.912;2023-01-23T04:48:24;-1.60;99.90
40153;DHT22;26371;56.992;23.912;2023-01-23T04:50:53;-1.60;99.90
40153;DHT22;26371;56.992;23.912;2023-01-23T04:53:21;-1.60;99.90
40153;DHT22;26371;56.992;23.912;2023-01-23T04:55:58;-1.50;99.90
40153;DHT22;26371;56.992;23.912;2023-01-23T04:58:27;-1.50;99.90
40153;DHT22;26371;56.992;23.912;2023-01-23T05:01:02;-1.50;99.90
40153;DHT22;26371;56.992;23.912;2023-01-23T05:03:33;-1.50;99.90
40153;DHT22;26371;56.992;23.912;2023-01-23T05:06:02;-1.50;99.90
40153;DHT22;26371;56.992;23.912;2023-01-23T05:08:32;-1.60;99.90
40153;DHT22;26371;56.992;23.912;2023-01-23T05:11:22;-1.60;99.90
40153;DHT22;26371;56.992;23.912;2023-01-23T05:13:51;-1.60;99.90
40153;DHT22;26371;56.992;23.912;2023-01-23T05:16:22;-1.60;99.90
40153;DHT22;26371;56.992;23.912;2023-01-23T05:19:10;-1.60;99.90
40153;DHT22;26371;56.992;23.912;2023-01-23T05:21:39;-1.60;99.90
40153;DHT22;26371;56.992;23.912;2023-01-23T05:24:13;-1.60;99.90
40153;DHT22;26371;56.992;23.912;2023-01-23T05:26:43;-1.60;99.90
40153;DHT22;26371;56.992;23.912;2023-01-23T05:29:12;-1.60;99.90
40153;DHT22;26371;56.992;23.912;2023-01-23T05:31:52;-1.70;99.90
40153;DHT22;26371;56.992;23.912;2023-01-23T05:34:36;-1.70;99.90
40153;DHT22;26371;56.992;23.912;2023-01-23T05:37:27;-1.70;99.90
40153;DHT22;26371;56.992;23.912;2023-01-23T05:40:00;-1.70;99.90
40153;DHT22;26371;56.992;23.912;2023-01-23T05:42:49;-1.70;99.90
40153;DHT22;26371;56.992;23.912;2023-01-23T05:45:33;-1.70;99.90
40153;DHT22;26371;56.992;23.912;2023-01-23T05:48:09;-1.70;99.90
40153;DHT22;26371;56.992;23.912;2023-01-23T05:50:39;-1.70;99.90
40153;DHT22;26371;56.992;23.912;2023-01-23T05:53:08;-1.70;99.90
40153;DHT22;26371;56.992;23.912;2023-01-23T05:55:37;-1.70;99.90
40153;DHT22;26371;56.992;23.912;2023-01-23T05:58:07;-1.70;99.90
40153;DHT22;26371;56.992;23.912;2023-01-23T06:00:56;-1.70;99.90
40153;DHT22;26371;56.992;23.912;2023-01-23T06:03:46;-1.70;99.90
40153;DHT22;26371;56.992;23.912;2023-01-23T06:06:41;-1.70;99.90
40153;DHT22;26371;56.992;23.912;2023-01-23T06:09:11;-1.70;99.90
40153;DHT22;26371;56.992;23.912;2023-01-23T06:11:39;-1.60;99.90
40153;DHT22;26371;56.992;23.912;2023-01-23T06:14:08;-1.60;99.90
40153;DHT22;26371;56.992;23.912;2023-01-23T06:16:37;-1.60;99.90
40153;DHT22;26371;56.992;23.912;2023-01-23T06:19:08;-1.60;99.90
40153;DHT22;26371;56.992;23.912;2023-01-23T06:21:37;-1.60;99.90
40153;DHT22;26371;56.992;23.912;2023-01-23T06:24:06;-1.50;99.90
40153;DHT22;26371;56.992;23.912;2023-01-23T06:26:35;-1.50;99.90
40153;DHT22;26371;56.992;23.912;2023-01-23T06:29:04;-1.50;99.90
40153;DHT22;26371;56.992;23.912;2023-01-23T06:31:34;-1.40;99.90
40153;DHT22;26371;56.992;23.912;2023-01-23T06:34:03;-1.40;99.90
40153;DHT22;26371;56.992;23.912;2023-01-23T06:36:40;-1.30;99.90
40153;DHT22;26371;56.992;23.912;2023-01-23T06:39:12;-1.30;99.90
40153;DHT22;26371;56.992;23.912;2023-01-23T06:41:42;-1.30;99.90
40153;DHT22;26371;56.992;23.912;2023-01-23T06:44:17;-1.30;99.90
40153;DHT22;26371;56.992;23.912;2023-01-23T06:46:45;-1.30;99.90
40153;DHT22;26371;56.992;23.912;2023-01-23T06:49:14;-1.30;99.90
40153;DHT22;26371;56.992;23.912;2023-01-23T06:51:44;-1.30;99.90
40153;DHT22;26371;56.992;23.912;2023-01-23T06:54:14;-1.30;99.90
40153;DHT22;26371;56.992;23.912;2023-01-23T06:56:43;-1.30;99.90
40153;DHT22;26371;56.992;23.912;2023-01-23T06:59:12;-1.30;99.90
40153;DHT22;26371;56.992;23.912;2023-01-23T07:01:42;-1.30;99.90
40153;DHT22;26371;56.992;23.912;2023-01-23T07:04:10;-1.40;99.90
40153;DHT22;26371;56.992;23.912;2023-01-23T07:06:41;-1.40;99.90
40153;DHT22;26371;56.992;23.912;2023-01-23T07:09:12;-1.50;99.90
40153;DHT22;26371;56.992;23.912;2023-01-23T07:11:45;-1.50;99.90
40153;DHT22;26371;56.992;23.912;2023-01-23T07:14:14;-1.50;99.90
40153;DHT22;26371;56.992;23.912;2023-01-23T07:16:46;-1.50;99.90
40153;DHT22;26371;56.992;23.912;2023-01-23T07:19:15;-1.50;99.90
40153;DHT22;26371;56.992;23.912;2023-01-23T07:21:47;-1.50;99.90
40153;DHT22;26371;56.992;23.912;2023-01-23T07:24:17;-1.50;99.90
40153;DHT22;26371;56.992;23.912;2023-01-23T07:26:46;-1.50;99.90
40153;DHT22;26371;56.992;23.912;2023-01-23T07:29:15;-1.50;99.90
40153;DHT22;26371;56.992;23.912;2023-01-23T07:31:43;-1.50;99.90
40153;DHT22;26371;56.992;23.912;2023-01-23T07:34:13;-1.50;99.90
40153;DHT22;26371;56.992;23.912;2023-01-23T07:36:42;-1.50;99.90
40153;DHT22;26371;56.992;23.912;2023-01-23T07:39:11;-1.50;99.90
40153;DHT22;26371;56.992;23.912;2023-01-23T07:41:41;-1.50;99.90
40153;DHT22;26371;56.992;23.912;2023-01-23T07:44:15;-1.40;99.90
40153;DHT22;26371;56.992;23.912;2023-01-23T07:46:46;-1.50;99.90
40153;DHT22;26371;56.992;23.912;2023-01-23T07:49:15;-1.50;99.90
40153;DHT22;26371;56.992;23.912;2023-01-23T07:51:44;-1.40;99.90
40153;DHT22;26371;56.992;23.912;2023-01-23T07:54:16;-1.40;99.90
40153;DHT22;26371;56.992;23.912;2023-01-23T07:56:48;-1.40;99.90
40153;DHT22;26371;56.992;23.912;2023-01-23T07:59:17;-1.40;99.90
40153;DHT22;26371;56.992;23.912;2023-01-23T08:01:46;-1.40;99.90
40153;DHT22;26371;56.992;23.912;2023-01-23T08:04:17;-1.40;99.90
40153;DHT22;26371;56.992;23.912;2023-01-23T08:06:46;-1.40;99.90
40153;DHT22;26371;56.992;23.912;2023-01-23T08:09:14;-1.50;99.90
40153;DHT22;26371;56.992;23.912;2023-01-23T08:11:43;-1.50;99.90
40153;DHT22;26371;56.992;23.912;2023-01-23T08:14:13;-1.50;99.90
40153;DHT22;26371;56.992;23.912;2023-01-23T08:16:42;-1.50;99.90
40153;DHT22;26371;56.992;23.912;2023-01-23T08:19:11;-1.40;99.90
40153;DHT22;26371;56.992;23.912;2023-01-23T08:21:39;-1.40;99.90
40153;DHT22;26371;56.992;23.912;2023-01-23T08:24:09;-1.40;99.90
40153;DHT22;26371;56.992;23.912;2023-01-23T08:26:38;-1.40;99.90
40153;DHT22;26371;56.992;23.912;2023-01-23T08:29:07;-1.40;99.90
40153;DHT22;26371;56.992;23.912;2023-01-23T08:31:38;-1.40;99.90
40153;DHT22;26371;56.992;23.912;2023-01-23T08:34:07;-1.40;99.90
40153;DHT22;26371;56.992;23.912;2023-01-23T08:36:36;-1.40;99.90
40153;DHT22;26371;56.992;23.912;2023-01-23T08:39:04;-1.50;99.90
40153;DHT22;26371;56.992;23.912;2023-01-23T08:41:33;-1.50;99.90
40153;DHT22;26371;56.992;23.912;2023-01-23T08:44:02;-1.50;99.90
40153;DHT22;26371;56.992;23.912;2023-01-23T08:46:30;-1.50;99.90
40153;DHT22;26371;56.992;23.912;2023-01-23T08:49:00;-1.50;99.90
40153;DHT22;26371;56.992;23.912;2023-01-23T08:51:30;-1.40;99.90
40153;DHT22;26371;56.992;23.912;2023-01-23T08:53:58;-1.40;99.90
40153;DHT22;26371;56.992;23.912;2023-01-23T08:56:27;-1.40;99.90
40153;DHT22;26371;56.992;23.912;2023-01-23T08:58:56;-1.40;99.90
40153;DHT22;26371;56.992;23.912;2023-01-23T09:01:26;-1.30;99.90
40153;DHT22;26371;56.992;23.912;2023-01-23T09:03:55;-1.30;99.90
40153;DHT22;26371;56.992;23.912;2023-01-23T09:06:25;-1.30;99.90
40153;DHT22;26371;56.992;23.912;2023-01-23T09:08:54;-1.40;99.90
40153;DHT22;26371;56.992;23.912;2023-01-23T09:11:22;-1.30;99.90
40153;DHT22;26371;56.992;23.912;2023-01-23T09:13:51;-1.30;99.90
40153;DHT22;26371;56.992;23.912;2023-01-23T09:16:20;-1.30;99.90
40153;DHT22;26371;56.992;23.912;2023-01-23T09:18:49;-1.20;99.90
40153;DHT22;26371;56.992;23.912;2023-01-23T09:21:18;-1.20;99.90
40153;DHT22;26371;56.992;23.912;2023-01-23T09:23:48;-1.20;99.90
40153;DHT22;26371;56.992;23.912;2023-01-23T09:26:16;-1.20;99.90
40153;DHT22;26371;56.992;23.912;2023-01-23T09:28:46;-1.10;99.90
40153;DHT22;26371;56.992;23.912;2023-01-23T09:31:14;-1.10;99.90
40153;DHT22;26371;56.992;23.912;2023-01-23T09:33:43;-1.10;99.90
40153;DHT22;26371;56.992;23.912;2023-01-23T09:36:11;-1.10;99.90
40153;DHT22;26371;56.992;23.912;2023-01-23T09:38:40;-1.10;99.90
40153;DHT22;26371;56.992;23.912;2023-01-23T09:41:15;-1.10;99.90
40153;DHT22;26371;56.992;23.912;2023-01-23T09:43:50;-1.10;99.90
40153;DHT22;26371;56.992;23.912;2023-01-23T09:46:25;-1.00;99.90
40153;DHT22;26371;56.992;23.912;2023-01-23T09:48:59;-1.00;99.90
40153;DHT22;26371;56.992;23.912;2023-01-23T09:51:40;-1.00;99.90
40153;DHT22;26371;56.992;23.912;2023-01-23T09:54:18;-1.00;99.90
40153;DHT22;26371;56.992;23.912;2023-01-23T09:56:50;-1.00;99.90
40153;DHT22;26371;56.992;23.912;2023-01-23T09:59:26;-1.00;99.90
40153;DHT22;26371;56.992;23.912;2023-01-23T10:01:58;-1.00;99.90
40153;DHT22;26371;56.992;23.912;2023-01-23T10:04:27;-1.00;99.90
40153;DHT22;26371;56.992;23.912;2023-01-23T10:07:11;-1.00;99.90
40153;DHT22;26371;56.992;23.912;2023-01-23T10:10:13;-1.00;99.90
40153;DHT22;26371;56.992;23.912;2023-01-23T10:12:55;-1.00;99.90
40153;DHT22;26371;56.992;23.912;2023-01-23T10:15:34;-1.00;99.90
40153;DHT22;26371;56.992;23.912;2023-01-23T10:18:17;-1.10;99.90
40153;DHT22;26371;56.992;23.912;2023-01-23T10:20:59;-1.00;99.90
40153;DHT22;26371;56.992;23.912;2023-01-23T10:23:40;-1.00;99.90
40153;DHT22;26371;56.992;23.912;2023-01-23T10:26:16;-1.00;99.90
40153;DHT22;26371;56.992;23.912;2023-01-23T10:28:47;-1.00;99.90
40153;DHT22;26371;56.992;23.912;2023-01-23T10:31:32;-1.00;99.90
40153;DHT22;26371;56.992;23.912;2023-01-23T10:34:12;-1.00;99.90
40153;DHT22;26371;56.992;23.912;2023-01-23T10:36:47;-1.00;99.90
40153;DHT22;26371;56.992;23.912;2023-01-23T10:39:25;-1.00;99.90
40153;DHT22;26371;56.992;23.912;2023-01-23T10:41:55;-1.00;99.90
40153;DHT22;26371;56.992;23.912;2023-01-23T10:44:30;-1.10;99.90
40153;DHT22;26371;56.992;23.912;2023-01-23T10:47:00;-1.00;99.90
40153;DHT22;26371;56.992;23.912;2023-01-23T10:49:31;-1.00;99.90
40153;DHT22;26371;56.992;23.912;2023-01-23T10:52:01;-1.00;99.90
40153;DHT22;26371;56.992;23.912;2023-01-23T10:54:30;-1.00;99.90
40153;DHT22;26371;56.992;23.912;2023-01-23T10:57:22;-1.00;99.90
40153;DHT22;26371;56.992;23.912;2023-01-23T10:59:57;-1.10;99.90
40153;DHT22;26371;56.992;23.912;2023-01-23T11:02:31;-1.10;99.90
40153;DHT22;26371;56.992;23.912;2023-01-23T11:05:02;-1.10;99.90
40153;DHT22;26371;56.992;23.912;2023-01-23T11:07:36;-1.10;99.90
40153;DHT22;26371;56.992;23.912;2023-01-23T11:10:17;-1.10;99.90
40153;DHT22;26371;56.992;23.912;2023-01-23T11:12:50;-1.10;99.90
40153;DHT22;26371;56.992;23.912;2023-01-23T11:15:23;-1.00;99.90
40153;DHT22;26371;56.992;23.912;2023-01-23T11:17:54;-1.10;99.90
40153;DHT22;26371;56.992;23.912;2023-01-23T11:20:27;-1.00;99.90
40153;DHT22;26371;56.992;23.912;2023-01-23T11:23:01;-1.10;99.90
40153;DHT22;26371;56.992;23.912;2023-01-23T11:25:32;-1.00;99.90
40153;DHT22;26371;56.992;23.912;2023-01-23T11:28:18;-1.00;99.90
40153;DHT22;26371;56.992;23.912;2023-01-23T11:30:54;-0.90;99.90
40153;DHT22;26371;56.992;23.912;2023-01-23T11:33:40;-0.90;99.90
40153;DHT22;26371;56.992;23.912;2023-01-23T11:36:35;-0.80;99.90
40153;DHT22;26371;56.992;23.912;2023-01-23T11:39:17;-0.80;99.90
40153;DHT22;26371;56.992;23.912;2023-01-23T11:41:49;-0.70;99.90
40153;DHT22;26371;56.992;23.912;2023-01-23T11:44:19;-0.70;99.90
40153;DHT22;26371;56.992;23.912;2023-01-23T11:47:06;-0.70;99.90
40153;DHT22;26371;56.992;23.912;2023-01-23T11:49:57;-0.70;99.90
40153;DHT22;26371;56.992;23.912;2023-01-23T11:52:38;-0.60;99.90
40153;DHT22;26371;56.992;23.912;2023-01-23T11:55:32;-0.60;99.90
40153;DHT22;26371;56.992;23.912;2023-01-23T11:58:12;-0.60;99.90
40153;DHT22;26371;56.992;23.912;2023-01-23T12:00:45;-0.60;99.90
40153;DHT22;26371;56.992;23.912;2023-01-23T12:06:23;-0.60;99.90
40153;DHT22;26371;56.992;23.912;2023-01-23T12:09:04;-0.70;99.90
40153;DHT22;26371;56.992;23.912;2023-01-23T12:11:42;-0.70;99.90
40153;DHT22;26371;56.992;23.912;2023-01-23T12:14:16;-0.80;99.90
40153;DHT22;26371;56.992;23.912;2023-01-23T12:17:17;-0.90;99.90
40153;DHT22;26371;56.992;23.912;2023-01-23T12:20:18;-0.90;99.90
40153;DHT22;26371;56.992;23.912;2023-01-23T12:25:39;-0.90;99.90
40153;DHT22;26371;56.992;23.912;2023-01-23T12:28:21;-1.00;99.90
40153;DHT22;26371;56.992;23.912;2023-01-23T12:31:09;-1.00;99.90
40153;DHT22;26371;56.992;23.912;2023-01-23T12:34:02;-0.90;99.90
40153;DHT22;26371;56.992;23.912;2023-01-23T12:36:50;-0.90;99.90
40153;DHT22;26371;56.992;23.912;2023-01-23T12:39:49;-0.90;99.90
40153;DHT22;26371;56.992;23.912;2023-01-23T12:42:23;-0.90;99.90
40153;DHT22;26371;56.992;23.912;2023-01-23T12:44:58;-0.90;99.90
40153;DHT22;26371;56.992;23.912;2023-01-23T12:47:32;-0.90;99.90
40153;DHT22;26371;56.992;23.912;2023-01-23T12:50:05;-0.90;99.90
40153;DHT22;26371;56.992;23.912;2023-01-23T12:52:45;-0.90;99.90
40153;DHT22;26371;56.992;23.912;2023-01-23T12:55:19;-0.90;99.90
40153;DHT22;26371;56.992;23.912;2023-01-23T12:57:51;-0.90;99.90
40153;DHT22;26371;56.992;23.912;2023-01-23T13:00:48;-1.00;99.90
40153;DHT22;26371;56.992;23.912;2023-01-23T13:03:34;-1.00;99.90
40153;DHT22;26371;56.992;23.912;2023-01-23T13:06:33;-0.90;99.90
40153;DHT22;26371;56.992;23.912;2023-01-23T13:09:12;-0.90;99.90
40153;DHT22;26371;56.992;23.912;2023-01-23T13:11:55;-0.90;99.90
40153;DHT22;26371;56.992;23.912;2023-01-23T13:14:36;-1.00;99.90
40153;DHT22;26371;56.992;23.912;2023-01-23T13:17:36;-1.00;99.90
40153;DHT22;26371;56.992;23.912;2023-01-23T13:20:20;-1.00;99.90
40153;DHT22;26371;56.992;23.912;2023-01-23T13:23:25;-1.00;99.90
40153;DHT22;26371;56.992;23.912;2023-01-23T13:26:28;-1.00;99.90
40153;DHT22;26371;56.992;23.912;2023-01-23T13:28:59;-1.10;99.90
40153;DHT22;26371;56.992;23.912;2023-01-23T13:31:41;-1.10;99.90
40153;DHT22;26371;56.992;23.912;2023-01-23T13:34:35;-1.10;99.90
40153;DHT22;26371;56.992;23.912;2023-01-23T13:40:15;-1.10;99.90
40153;DHT22;26371;56.992;23.912;2023-01-23T13:42:46;-1.00;99.90
40153;DHT22;26371;56.992;23.912;2023-01-23T13:45:32;-1.10;99.90
40153;DHT22;26371;56.992;23.912;2023-01-23T13:51:34;-1.00;99.90
40153;DHT22;26371;56.992;23.912;2023-01-23T13:54:21;-1.00;99.90
40153;DHT22;26371;56.992;23.912;2023-01-23T13:57:23;-1.10;99.90
40153;DHT22;26371;56.992;23.912;2023-01-23T14:00:13;-1.10;99.90
40153;DHT22;26371;56.992;23.912;2023-01-23T14:02:58;-1.10;99.90
40153;DHT22;26371;56.992;23.912;2023-01-23T14:06:06;-1.10;99.90
40153;DHT22;26371;56.992;23.912;2023-01-23T14:15:48;-1.20;99.90
40153;DHT22;26371;56.992;23.912;2023-01-23T14:21:48;-1.30;99.90
40153;DHT22;26371;56.992;23.912;2023-01-23T14:24:20;-1.20;99.90
40153;DHT22;26371;56.992;23.912;2023-01-23T14:26:51;-1.30;99.90
40153;DHT22;26371;56.992;23.912;2023-01-23T14:29:21;-1.30;99.90
40153;DHT22;26371;56.992;23.912;2023-01-23T14:31:52;-1.30;99.90
40153;DHT22;26371;56.992;23.912;2023-01-23T14:34:23;-1.30;99.90
40153;DHT22;26371;56.992;23.912;2023-01-23T14:37:02;-1.30;99.90
40153;DHT22;26371;56.992;23.912;2023-01-23T14:39:33;-1.30;99.90
40153;DHT22;26371;56.992;23.912;2023-01-23T14:42:03;-1.30;99.90
40153;DHT22;26371;56.992;23.912;2023-01-23T14:44:44;-1.40;99.90
40153;DHT22;26371;56.992;23.912;2023-01-23T14:47:17;-1.40;99.90
40153;DHT22;26371;56.992;23.912;2023-01-23T14:49:48;-1.40;99.90
40153;DHT22;26371;56.992;23.912;2023-01-23T14:52:21;-1.40;99.90
40153;DHT22;26371;56.992;23.912;2023-01-23T14:54:50;-1.40;99.90
40153;DHT22;26371;56.992;23.912;2023-01-23T14:57:22;-1.40;99.90
40153;DHT22;26371;56.992;23.912;2023-01-23T14:59:54;-1.30;99.90
40153;DHT22;26371;56.992;23.912;2023-01-23T15:02:31;-1.30;99.90
40153;DHT22;26371;56.992;23.912;2023-01-23T15:05:08;-1.40;99.90
40153;DHT22;26371;56.992;23.912;2023-01-23T15:07:42;-1.40;99.90
40153;DHT22;26371;56.992;23.912;2023-01-23T15:10:15;-1.30;99.90
40153;DHT22;26371;56.992;23.912;2023-01-23T15:12:53;-1.30;99.90
40153;DHT22;26371;56.992;23.912;2023-01-23T15:15:24;-1.30;99.90
40153;DHT22;26371;56.992;23.912;2023-01-23T15:17:55;-1.40;99.90
40153;DHT22;26371;56.992;23.912;2023-01-23T15:20:29;-1.40;99.90
40153;DHT22;26371;56.992;23.912;2023-01-23T15:23:19;-1.40;99.90
40153;DHT22;26371;56.992;23.912;2023-01-23T15:26:08;-1.40;99.90
40153;DHT22;26371;56.992;23.912;2023-01-23T15:28:39;-1.40;99.90
40153;DHT22;26371;56.992;23.912;2023-01-23T15:31:22;-1.50;99.90
40153;DHT22;26371;56.992;23.912;2023-01-23T15:33:54;-1.50;99.90
40153;DHT22;26371;56.992;23.912;2023-01-23T15:36:25;-1.50;99.90
40153;DHT22;26371;56.992;23.912;2023-01-23T15:38:56;-1.60;99.90
40153;DHT22;26371;56.992;23.912;2023-01-23T15:41:41;-1.50;99.90
40153;DHT22;26371;56.992;23.912;2023-01-23T15:44:13;-1.50;99.90
40153;DHT22;26371;56.992;23.912;2023-01-23T15:46:42;-1.50;99.90
40153;DHT22;26371;56.992;23.912;2023-01-23T15:49:12;-1.50;99.90
40153;DHT22;26371;56.992;23.912;2023-01-23T15:51:54;-1.60;99.90
40153;DHT22;26371;56.992;23.912;2023-01-23T15:54:27;-1.60;99.90
40153;DHT22;26371;56.992;23.912;2023-01-23T15:56:56;-1.60;99.90
40153;DHT22;26371;56.992;23.912;2023-01-23T15:59:34;-1.70;99.90
40153;DHT22;26371;56.992;23.912;2023-01-23T16:02:03;-1.70;99.90
40153;DHT22;26371;56.992;23.912;2023-01-23T16:04:35;-1.70;99.90
40153;DHT22;26371;56.992;23.912;2023-01-23T16:07:05;-1.70;99.90
40153;DHT22;26371;56.992;23.912;2023-01-23T16:09:36;-1.70;99.90
40153;DHT22;26371;56.992;23.912;2023-01-23T16:12:10;-1.70;99.90
40153;DHT22;26371;56.992;23.912;2023-01-23T16:14:48;-1.70;99.90
40153;DHT22;26371;56.992;23.912;2023-01-23T16:17:19;-1.70;99.90
40153;DHT22;26371;56.992;23.912;2023-01-23T16:19:50;-1.70;99.90
40153;DHT22;26371;56.992;23.912;2023-01-23T16:22:26;-1.70;99.90